Time;durP1;ratioP1;P1;durP2;ratioP2;P2;SDS_P1;SDS_P2;PMS_P1;PMS_P2;Temp;Humidity;BMP_temperature;BMP_pressure;BME280_temperature;BME280_humidity;BME280_pressure;Samples;Min_cycle;Max_cycle;Signal;HPM_P1;HPM_P2
2022/12/14 00:01:21;;;;;;;5.20;4.12;;;;;;;-3.33;100.00;99234.67;1750031;80;21566;-57
2022/12/14 00:03:48;;;;;;;5.25;4.22;;;;;;;-3.23;100.00;99241.58;1760373;80;21649;-57
2022/12/14 00:06:21;;;;;;;5.20;4.10;;;;;;;-3.21;100.00;99237.30;1750482;80;21460;-56
2022/12/14 00:08:49;;;;;;;5.97;5.00;;;;;;;-3.19;100.00;99231.73;1761438;80;22446;-57
2022/12/14 00:11:18;;;;;;;7.53;4.80;;;;;;;-3.19;100.00;99248.89;1762154;80;21557;-57
2022/12/14 00:13:45;;;;;;;6.20;4.20;;;;;;;-3.08;100.00;99240.81;1751497;80;21826;-56
2022/12/14 00:16:14;;;;;;;5.47;4.90;;;;;;;-3.00;100.00;99240.85;1749016;80;21541;-56
2022/12/14 00:18:41;;;;;;;5.53;4.47;;;;;;;-2.97;100.00;99237.02;1764174;80;21558;-56
2022/12/14 00:21:10;;;;;;;5.00;4.50;;;;;;;-2.91;100.00;99243.48;1761649;80;21674;-56
2022/12/14 00:23:37;;;;;;;5.85;5.22;;;;;;;-2.95;100.00;99248.17;1757852;80;21494;-57
2022/12/14 00:26:19;;;;;;;5.35;4.62;;;;;;;-2.86;100.00;99255.06;1754779;80;21797;-56
2022/12/14 00:28:46;;;;;;;6.20;4.92;;;;;;;-2.89;100.00;99255.06;1768526;80;21482;-55
2022/12/14 00:31:13;;;;;;;6.70;5.65;;;;;;;-2.85;100.00;99251.22;1764791;80;23554;-55
2022/12/14 00:33:40;;;;;;;6.70;5.42;;;;;;;-2.89;100.00;99266.64;1753768;80;21593;-55
2022/12/14 00:36:08;;;;;;;5.95;5.30;;;;;;;-2.84;100.00;99267.11;1751793;80;21458;-55
2022/12/14 00:38:35;;;;;;;6.92;4.78;;;;;;;-2.78;100.00;99274.00;1765670;80;21877;-55
2022/12/14 00:41:02;;;;;;;6.37;5.33;;;;;;;-2.76;100.00;99273.58;1759964;80;21072;-55
2022/12/14 00:43:29;;;;;;;6.30;5.70;;;;;;;-2.72;100.00;99279.59;1764008;80;21033;-55
2022/12/14 00:45:56;;;;;;;6.87;5.05;;;;;;;-2.72;100.00;99280.89;1760245;80;21707;-55
2022/12/14 00:48:23;;;;;;;6.80;5.58;;;;;;;-2.70;100.00;99282.60;1758722;80;21499;-56
2022/12/14 00:50:51;;;;;;;7.85;5.90;;;;;;;-2.74;100.00;99286.88;1754420;80;21859;-55
2022/12/14 00:53:19;;;;;;;5.55;4.90;;;;;;;-2.65;100.00;99285.22;1754629;80;21552;-56
2022/12/14 00:55:47;;;;;;;5.70;4.53;;;;;;;-2.58;100.00;99282.67;1759289;80;21454;-56
2022/12/14 00:58:15;;;;;;;5.87;5.17;;;;;;;-2.52;100.00;99283.13;1761710;80;21510;-56
2022/12/14 01:00:43;;;;;;;5.47;4.92;;;;;;;-2.47;100.00;99283.13;1749588;80;21679;-56
2022/12/14 01:03:10;;;;;;;6.53;5.05;;;;;;;-2.45;100.00;99282.31;1752519;80;21463;-56
2022/12/14 01:05:38;;;;;;;6.00;5.35;;;;;;;-2.42;100.00;99281.02;1754366;80;21537;-56
2022/12/14 01:08:06;;;;;;;6.05;5.45;;;;;;;-2.39;100.00;99276.32;1758245;80;21420;-56
2022/12/14 01:10:33;;;;;;;7.25;5.87;;;;;;;-2.43;100.00;99278.02;1760844;80;21010;-56
2022/12/14 01:13:01;;;;;;;8.13;6.37;;;;;;;-2.44;100.00;99280.15;1759331;80;21490;-56
2022/12/14 01:15:27;;;;;;;7.12;5.92;;;;;;;-2.45;100.00;99286.17;1758343;80;21771;-56
2022/12/14 01:17:54;;;;;;;8.60;6.85;;;;;;;-2.39;100.00;99291.77;1752672;80;21515;-57
2022/12/14 01:20:20;;;;;;;8.43;6.80;;;;;;;-2.47;100.00;99294.28;1756057;80;21667;-56
2022/12/14 01:22:47;;;;;;;7.83;6.42;;;;;;;-2.47;100.00;99293.43;1714732;82;21588;-56
2022/12/14 01:25:14;;;;;;;7.00;6.30;;;;;;;-2.43;100.00;99293.88;1716685;82;21167;-56
2022/12/14 01:27:41;;;;;;;8.03;7.20;;;;;;;-2.45;100.00;99291.32;1724749;82;21857;-56
2022/12/14 01:30:09;;;;;;;6.62;5.92;;;;;;;-2.52;100.00;99303.72;1690672;83;21397;-57
2022/12/14 01:32:35;;;;;;;;;;;;;;;-2.42;100.00;99303.33;1735562;82;21422;-57
2022/12/14 01:35:03;;;;;;;7.42;6.00;;;;;;;-2.56;100.00;99305.86;1732264;81;20437;-56
2022/12/14 01:37:29;;;;;;;8.53;6.60;;;;;;;-2.49;100.00;99307.58;1731950;80;21608;-56
2022/12/14 01:39:56;;;;;;;9.05;6.60;;;;;;;-2.53;100.00;99308.42;1687672;82;21831;-57
2022/12/14 01:42:22;;;;;;;7.78;6.45;;;;;;;-2.50;100.00;99311.46;1671210;85;21604;-56
2022/12/14 01:44:54;;;;;;;7.12;6.45;;;;;;;-2.48;100.00;99314.47;1721765;82;21546;-56
2022/12/14 01:47:41;;;;;;;6.85;6.17;;;;;;;-2.48;100.00;99312.33;1711115;82;21636;-56
2022/12/14 01:50:31;;;;;;;8.53;6.37;;;;;;;-2.51;100.00;99315.73;1696558;83;21404;-56
2022/12/14 01:53:01;;;;;;;8.85;6.60;;;;;;;-2.43;100.00;99314.47;1728504;82;21857;-57
2022/12/14 01:55:51;;;;;;;8.08;6.95;;;;;;;-2.52;100.00;99317.89;1696726;82;21149;-57
2022/12/14 01:58:21;;;;;;;6.80;6.10;;;;;;;-2.49;100.00;99314.02;1723902;82;21633;-61
2022/12/14 02:00:49;;;;;;;7.67;6.35;;;;;;;-2.43;100.00;99321.80;1721222;80;21700;-57
2022/12/14 02:03:23;;;;;;;5.95;5.35;;;;;;;-2.39;100.00;99316.23;1733802;82;21427;-57
2022/12/14 06:50:36;;;;;;;4.75;3.42;;;;;;;-6.45;100.00;99644.76;1793975;78;23166;-56
2022/12/14 06:53:03;;;;;;;5.12;4.62;;;;;;;-6.28;100.00;99660.54;1760286;80;21529;-57
2022/12/14 06:55:30;;;;;;;7.27;5.97;;;;;;;-6.05;100.00;99659.81;1757899;80;21809;-56
2022/12/14 06:57:56;;;;;;;8.18;6.10;;;;;;;-5.83;100.00;99669.27;1768286;80;21577;-56
2022/12/14 07:00:23;;;;;;;8.07;6.83;;;;;;;-5.60;100.00;99666.81;1765357;80;20985;-58
2022/12/14 07:02:49;;;;;;;9.30;8.33;;;;;;;-5.38;100.00;99671.14;1768506;80;20958;-58
2022/12/14 07:05:16;;;;;;;12.33;11.15;;;;;;;-5.18;100.00;99673.72;1765032;80;21478;-58
2022/12/14 07:07:43;;;;;;;13.17;11.87;;;;;;;-4.96;100.00;99673.72;1772558;80;21873;-60
2022/12/14 07:10:10;;;;;;;27.30;20.30;;;;;;;-4.75;100.00;99671.99;1757831;80;21751;-59
2022/12/14 07:12:36;;;;;;;14.05;10.93;;;;;;;-4.56;100.00;99682.61;1751932;80;21452;-58
2022/12/14 07:15:06;;;;;;;10.93;9.03;;;;;;;-4.44;100.00;99675.16;1757260;79;21491;-58
2022/12/14 07:17:36;;;;;;;9.58;7.53;;;;;;;-4.30;100.00;99681.37;1765002;80;21473;-57
2022/12/14 07:20:05;;;;;;;9.68;7.28;;;;;;;-4.17;100.00;99673.91;1765960;80;22108;-57
2022/12/14 07:22:34;;;;;;;7.78;5.90;;;;;;;-4.05;100.00;99680.94;1751805;80;21460;-56
2022/12/14 07:25:02;;;;;;;7.50;6.40;;;;;;;-4.02;100.00;99674.16;1767234;80;21585;-56
2022/12/14 07:27:29;;;;;;;7.75;6.67;;;;;;;-3.98;100.00;99677.64;1773773;80;21477;-57
2022/12/14 07:29:56;;;;;;;8.00;6.55;;;;;;;-3.89;100.00;99678.22;1762476;80;21576;-58
2022/12/14 07:32:23;;;;;;;7.60;6.20;;;;;;;-3.89;100.00;99681.64;1757901;80;21811;-57
2022/12/14 07:34:49;;;;;;;8.78;6.22;;;;;;;-3.72;100.00;99677.62;1763578;80;20962;-57
2022/12/14 07:37:16;;;;;;;13.48;8.45;;;;;;;-3.60;100.00;99684.68;1741474;80;21049;-57
2022/12/14 07:39:43;;;;;;;10.10;7.85;;;;;;;-3.66;100.00;99678.14;1768640;80;21523;-56
2022/12/14 07:42:09;;;;;;;8.95;5.97;;;;;;;-3.62;100.00;99681.63;1762993;80;21480;-56
2022/12/14 07:44:36;;;;;;;6.12;5.50;;;;;;;-3.62;100.00;99685.05;1764325;80;22167;-56
2022/12/14 07:47:03;;;;;;;9.05;6.40;;;;;;;-3.56;100.00;99692.88;1744823;80;21569;-56
2022/12/14 07:49:30;;;;;;;6.70;5.93;;;;;;;-3.53;100.00;99695.47;1766178;80;21545;-56
2022/12/14 07:51:56;;;;;;;9.10;6.78;;;;;;;-3.51;100.00;99695.50;1757615;80;21596;-57
2022/12/14 07:54:25;;;;;;;6.60;5.87;;;;;;;-3.36;100.00;99692.29;1758013;80;21482;-56
2022/12/14 07:56:52;;;;;;;8.83;6.90;;;;;;;-3.25;100.00;99703.59;1762901;80;21779;-56
2022/12/14 07:59:19;;;;;;;7.45;5.78;;;;;;;-3.25;100.00;99704.88;1757861;80;21547;-55
2022/12/14 08:01:54;;;;;;;6.73;6.07;;;;;;;-3.11;100.00;99710.20;1743553;78;22128;-59
2022/12/14 08:04:23;;;;;;;8.10;6.42;;;;;;;-3.21;100.00;99706.64;1749354;79;21474;-56
2022/12/14 08:06:50;;;;;;;7.25;5.70;;;;;;;-3.18;100.00;99714.84;1745281;79;21507;-55
2022/12/14 08:09:16;;;;;;;6.33;5.42;;;;;;;-3.15;100.00;99719.58;1737978;79;21754;-55
2022/12/14 08:11:43;;;;;;;6.95;6.10;;;;;;;-3.00;100.00;99720.21;1734769;81;21487;-55
2022/12/14 08:14:19;;;;;;;8.65;6.90;;;;;;;-3.09;100.00;99719.23;1714753;79;21418;-55
2022/12/14 08:16:45;;;;;;;7.10;6.08;;;;;;;-3.00;100.00;99724.50;1746678;81;21489;-55
2022/12/14 08:19:12;;;;;;;7.92;6.25;;;;;;;-2.99;100.00;99724.52;1747303;79;21573;-55
2022/12/14 08:21:39;;;;;;;9.18;6.87;;;;;;;-2.90;100.00;99728.94;1715391;81;21916;-55
2022/12/14 08:24:06;;;;;;;8.78;6.65;;;;;;;-3.00;100.00;99726.64;1743080;79;21526;-55
2022/12/14 08:26:33;;;;;;;9.18;6.97;;;;;;;-2.96;100.00;99732.30;1733584;81;21520;-56
2022/12/14 08:29:00;;;;;;;7.85;6.53;;;;;;;-2.89;100.00;99735.80;1750596;79;21026;-56
2022/12/14 08:31:27;;;;;;;9.00;6.72;;;;;;;-2.85;100.00;99736.27;1721009;79;21508;-55
2022/12/14 08:33:54;;;;;;;8.28;6.62;;;;;;;-2.82;100.00;99740.61;1745968;79;22168;-56
2022/12/14 08:36:25;;;;;;;8.65;7.00;;;;;;;-2.78;100.00;99741.09;1742320;79;21640;-56
2022/12/14 08:38:58;;;;;;;8.35;6.87;;;;;;;-2.77;100.00;99739.83;1730124;79;21533;-55
2022/12/14 08:41:25;;;;;;;7.67;6.08;;;;;;;-2.82;100.00;99740.18;1740795;79;21045;-55
2022/12/14 08:43:57;;;;;;;7.30;6.35;;;;;;;-2.85;100.00;99743.14;1744890;79;21524;-55
2022/12/14 08:46:25;;;;;;;7.70;6.20;;;;;;;-2.78;100.00;99741.94;1739904;81;22130;-56
2022/12/14 08:48:52;;;;;;;;;;;;;;;-2.69;100.00;99742.89;1683351;84;21577;-56
2022/12/14 08:51:19;;;;;;;8.43;7.30;;;;;;;-2.75;100.00;99746.25;1722196;82;20496;-56
2022/12/14 08:53:47;;;;;;;6.95;6.08;;;;;;;-2.63;100.00;99750.28;1742863;79;21583;-56
2022/12/14 08:56:17;;;;;;;7.05;5.92;;;;;;;-2.55;100.00;99748.66;1747235;79;21559;-56
2022/12/14 08:58:44;;;;;;;6.92;6.25;;;;;;;-2.51;100.00;99745.69;1746609;79;22039;-56
2022/12/14 09:01:14;;;;;;;7.00;6.30;;;;;;;-2.47;100.00;99753.03;1743108;79;21588;-56
2022/12/14 09:03:45;;;;;;;9.43;6.90;;;;;;;-2.48;100.00;99755.19;1748931;79;21445;-56
2022/12/14 09:06:17;;;;;;;7.42;6.45;;;;;;;-2.56;100.00;99746.09;1755878;80;21517;-57
2022/12/14 09:08:44;;;;;;;9.18;7.03;;;;;;;-2.54;100.00;99750.83;1763254;79;21442;-56
2022/12/14 09:11:13;;;;;;;10.17;8.10;;;;;;;-2.58;100.00;99754.19;1747093;80;21736;-56
2022/12/14 09:13:41;;;;;;;9.08;7.03;;;;;;;-2.68;100.00;99750.64;1748491;80;21410;-55
2022/12/14 09:16:15;;;;;;;7.65;6.35;;;;;;;-2.72;100.00;99748.02;1753305;80;21635;-56
2022/12/14 09:18:42;;;;;;;8.40;7.00;;;;;;;-2.82;100.00;99747.91;1766828;79;21474;-57
2022/12/14 09:21:08;;;;;;;11.83;7.12;;;;;;;-2.84;100.00;99752.59;1755253;79;21513;-57
2022/12/14 09:23:35;;;;;;;8.98;6.95;;;;;;;-2.87;100.00;99754.69;1755070;79;21865;-58
2022/12/14 09:26:15;;;;;;;7.47;6.62;;;;;;;-2.85;100.00;99751.71;1761188;79;21403;-56
2022/12/14 09:28:47;;;;;;;9.68;7.12;;;;;;;-2.75;100.00;99753.58;1754393;80;21607;-55
2022/12/14 09:31:17;;;;;;;8.00;6.95;;;;;;;-2.69;100.00;99755.77;1758205;80;21485;-56
2022/12/14 09:33:43;;;;;;;6.53;5.72;;;;;;;-2.67;100.00;99760.53;1749232;79;21485;-55
2022/12/14 09:36:15;;;;;;;7.58;6.80;;;;;;;-2.59;100.00;99770.06;1747149;80;21806;-55
2022/12/14 09:38:42;;;;;;;9.13;6.97;;;;;;;-2.55;100.00;99765.39;1758103;80;21451;-56
2022/12/14 09:41:41;;;;;;;7.78;6.03;;;;;;;-2.54;100.00;99768.85;1724092;81;21495;-56
2022/12/14 09:44:46;;;;;;;9.43;6.60;;;;;;;-2.48;100.00;99763.77;1754166;80;21493;-55
2022/12/14 09:47:36;;;;;;;8.70;6.15;;;;;;;-2.35;100.00;99763.49;1683780;83;21552;-56
2022/12/14 09:50:07;;;;;;;7.97;6.28;;;;;;;-2.24;100.00;99764.47;1686618;83;21815;-56
2022/12/14 09:52:41;;;;;;;7.70;6.17;;;;;;;-2.11;100.00;99766.77;1714625;79;21478;-56
2022/12/14 09:55:39;;;;;;;7.95;6.03;;;;;;;-2.01;100.00;99759.55;1755346;79;21571;-59
2022/12/14 09:58:13;;;;;;;8.30;7.20;;;;;;;-2.05;100.00;99765.53;1750494;79;21453;-58
2022/12/14 10:00:45;;;;;;;7.58;5.62;;;;;;;-1.80;100.00;99760.61;1752770;80;21481;-56
2022/12/14 10:03:37;;;;;;;6.90;6.12;;;;;;;-0.85;100.00;99756.14;1757232;80;21814;-56
2022/12/14 14:51:53;;;;;;;11.12;6.17;;;;;;;-5.26;100.00;99919.19;1771956;78;23471;-58
2022/12/14 14:54:26;;;;;;;16.35;8.48;;;;;;;-5.27;100.00;99933.70;1728823;80;21434;-58
2022/12/14 14:56:53;;;;;;;19.00;10.25;;;;;;;-5.16;100.00;99934.84;1729319;80;21824;-57
2022/12/14 14:59:25;;;;;;;20.70;12.93;;;;;;;-5.06;100.00;99928.67;1744288;80;21426;-57
2022/12/14 15:01:59;;;;;;;30.10;17.02;;;;;;;-5.00;100.00;99935.22;1733139;80;21552;-58
2022/12/14 15:04:37;;;;;;;27.95;17.75;;;;;;;-4.94;100.00;99939.21;1728814;80;21522;-58
2022/12/14 15:07:07;;;;;;;28.05;15.48;;;;;;;-4.83;100.00;99945.47;1731460;80;21525;-58
2022/12/14 15:09:43;;;;;;;24.67;14.53;;;;;;;-4.73;100.00;99948.72;1733254;80;21815;-58
2022/12/14 15:12:31;;;;;;;17.05;11.95;;;;;;;-4.64;100.00;99944.62;1738662;80;21600;-56
2022/12/14 15:15:02;;;;;;;13.88;10.00;;;;;;;-4.57;100.00;99943.52;1727558;80;21450;-58
2022/12/14 15:17:29;;;;;;;18.87;13.03;;;;;;;-4.47;100.00;99940.73;1736629;80;21462;-58
2022/12/14 15:20:00;;;;;;;19.02;11.88;;;;;;;-4.41;100.00;99942.15;1738227;81;21557;-58
2022/12/14 15:22:38;;;;;;;13.65;10.20;;;;;;;-4.37;100.00;99936.28;1735658;80;21906;-58
2022/12/14 15:25:09;;;;;;;12.95;10.13;;;;;;;-4.35;100.00;99935.89;1722482;80;21017;-58
2022/12/14 15:27:36;;;;;;;19.35;13.78;;;;;;;-4.32;100.00;99937.65;1732815;80;21537;-58
2022/12/14 15:30:14;;;;;;;25.47;17.17;;;;;;;-4.27;100.00;99933.91;1750091;81;21603;-58
2022/12/14 15:32:44;;;;;;;26.65;17.32;;;;;;;-4.27;100.00;99940.34;1737419;80;21776;-58
2022/12/14 15:35:18;;;;;;;20.17;14.23;;;;;;;-4.25;100.00;99939.95;1742273;80;21823;-58
2022/12/14 15:37:50;;;;;;;16.32;10.45;;;;;;;-4.23;100.00;99936.99;1751768;80;21431;-58
2022/12/14 15:40:22;;;;;;;11.55;9.23;;;;;;;-4.23;100.00;99935.28;1734766;81;21006;-57
2022/12/14 15:42:54;;;;;;;14.53;11.12;;;;;;;-4.19;100.00;99936.22;1694031;83;21446;-61
2022/12/14 15:45:28;;;;;;;12.70;10.48;;;;;;;-4.18;100.00;99939.22;1686941;83;20971;-57
2022/12/14 15:47:54;;;;;;;15.55;12.30;;;;;;;-4.18;100.00;99934.97;1683925;83;21974;-57
2022/12/14 15:50:25;;;;;;;12.53;11.03;;;;;;;-4.20;100.00;99937.93;1696910;82;21423;-58
2022/12/14 15:52:56;;;;;;;14.63;10.68;;;;;;;-4.20;100.00;99935.75;1684963;82;21583;-58
2022/12/14 15:55:42;;;;;;;16.75;11.88;;;;;;;-4.25;100.00;99933.11;1663390;84;21494;-58
2022/12/14 15:58:31;;;;;;;20.92;13.88;;;;;;;-4.26;100.00;99937.77;1675923;82;21452;-58
2022/12/14 16:01:02;;;;;;;24.18;16.00;;;;;;;-4.27;100.00;99947.61;1695722;82;21539;-56
2022/12/14 16:03:35;;;;;;;31.77;19.92;;;;;;;-4.29;100.00;99935.16;1684840;82;21618;-58
2022/12/14 16:06:02;;;;;;;25.97;16.30;;;;;;;-4.26;100.00;99931.78;1719311;82;21415;-57
2022/12/14 16:08:31;;;;;;;19.00;12.90;;;;;;;-4.27;100.00;99942.48;1730704;80;21525;-59
2022/12/14 16:11:00;;;;;;;18.92;11.68;;;;;;;-4.29;100.00;99945.43;1714988;82;21549;-57
2022/12/14 16:13:33;;;;;;;13.43;9.75;;;;;;;-4.30;100.00;99947.11;1718498;81;21833;-58
2022/12/14 16:16:10;;;;;;;13.85;9.75;;;;;;;-4.31;100.00;99938.11;1717637;80;21440;-57
2022/12/14 16:18:48;;;;;;;16.15;10.35;;;;;;;-4.35;100.00;99942.70;1678649;83;21548;-59
2022/12/14 16:21:30;;;;;;;21.52;12.28;;;;;;;-4.38;100.00;99940.95;1728081;81;21519;-57
2022/12/14 16:23:58;;;;;;;37.05;19.45;;;;;;;-4.40;100.00;99946.47;1720991;81;21170;-58
2022/12/14 16:26:37;;;;;;;;;;;;;;;-4.39;100.00;99950.78;1721828;81;21825;-58
2022/12/14 16:29:21;;;;;;;28.27;14.23;;;;;;;-4.42;100.00;99957.55;1682421;84;20638;-58
2022/12/14 16:31:48;;;;;;;32.85;17.70;;;;;;;-4.32;100.00;99960.33;1724536;81;21581;-57
2022/12/14 16:34:19;;;;;;;25.85;13.75;;;;;;;-4.28;100.00;99956.56;1719159;81;21550;-58
2022/12/14 16:36:47;;;;;;;21.15;13.55;;;;;;;-4.26;100.00;99960.02;1729105;80;21538;-58
2022/12/14 16:39:21;;;;;;;21.50;12.30;;;;;;;-4.22;100.00;99966.95;1718218;81;21831;-58
2022/12/14 16:41:58;;;;;;;16.05;11.73;;;;;;;-4.22;100.00;99967.84;1727129;80;21451;-58
2022/12/14 16:44:37;;;;;;;16.62;10.43;;;;;;;-4.23;100.00;99966.52;1724800;80;21448;-58
2022/12/14 16:47:28;;;;;;;16.95;10.72;;;;;;;-4.25;100.00;99969.05;1724372;80;21085;-57
2022/12/14 16:50:00;;;;;;;14.23;10.30;;;;;;;-4.24;100.00;99972.05;1707433;81;21499;-58
2022/12/14 16:52:32;;;;;;;15.35;10.00;;;;;;;-4.22;100.00;99969.13;1727364;80;21823;-58
2022/12/14 16:55:14;;;;;;;15.90;10.70;;;;;;;-4.20;100.00;99968.74;1739224;80;21402;-57
2022/12/14 16:57:54;;;;;;;14.13;10.30;;;;;;;-4.23;100.00;99964.81;1725843;80;21832;-56
2022/12/14 17:00:30;;;;;;;20.40;12.73;;;;;;;-4.24;100.00;99965.63;1734325;80;21459;-57
2022/12/14 17:03:03;;;;;;;15.83;11.88;;;;;;;-4.22;100.00;99963.10;1723761;82;21676;-57
2022/12/14 17:05:37;;;;;;;18.25;12.28;;;;;;;-4.20;100.00;99964.89;1702541;82;21507;-57
2022/12/14 17:08:05;;;;;;;19.35;12.25;;;;;;;-4.23;100.00;99961.39;1727717;80;21520;-57
2022/12/14 17:10:32;;;;;;;15.50;11.38;;;;;;;-4.25;100.00;99965.20;1718940;80;21620;-58
2022/12/14 17:13:00;;;;;;;16.95;11.33;;;;;;;-4.29;100.00;99969.83;1732752;82;21582;-57
2022/12/14 17:15:31;;;;;;;14.95;10.60;;;;;;;-4.32;100.00;99964.61;1727411;80;20950;-58
2022/12/14 17:17:58;;;;;;;12.30;9.28;;;;;;;-4.32;100.00;99963.33;1732704;81;21816;-57
2022/12/14 17:20:32;;;;;;;13.03;9.38;;;;;;;-4.33;100.00;99967.59;1735719;82;21414;-57
2022/12/14 17:23:00;;;;;;;13.85;9.85;;;;;;;-4.35;100.00;99969.27;1722968;82;21568;-56
2022/12/14 17:25:28;;;;;;;11.60;9.03;;;;;;;-4.35;100.00;99973.13;1719005;81;21431;-57
2022/12/14 17:27:55;;;;;;;13.48;9.75;;;;;;;-4.36;100.00;99973.94;1727760;81;21562;-56
2022/12/14 17:30:22;;;;;;;13.85;9.70;;;;;;;-4.38;100.00;99974.32;1726158;82;21835;-56
2022/12/14 17:32:51;;;;;;;12.25;9.25;;;;;;;-4.34;100.00;99976.13;1736994;80;21523;-56
2022/12/14 17:35:47;;;;;;;12.05;8.58;;;;;;;-4.31;100.00;99971.06;1688027;80;21547;-56
2022/12/14 17:38:16;;;;;;;11.08;8.23;;;;;;;-4.27;100.00;99965.59;1688859;83;21122;-57
2022/12/14 17:40:43;;;;;;;9.98;7.80;;;;;;;-4.21;100.00;99973.84;1696718;82;21044;-57
2022/12/14 17:43:12;;;;;;;10.58;7.60;;;;;;;-4.18;100.00;99965.80;1668249;83;21553;-56
2022/12/14 17:45:39;;;;;;;9.15;7.25;;;;;;;-4.16;100.00;99970.97;1696374;82;21531;-56
2022/12/14 17:48:09;;;;;;;10.33;8.23;;;;;;;-4.13;100.00;99974.44;1698253;82;21476;-56
2022/12/14 17:50:36;;;;;;;10.70;7.80;;;;;;;-4.11;100.00;99968.06;1668440;85;21426;-57
2022/12/14 17:53:03;;;;;;;10.80;8.63;;;;;;;-4.11;100.00;99963.81;1669746;84;21442;-57
2022/12/14 17:55:29;;;;;;;11.85;8.35;;;;;;;-4.09;100.00;99966.38;1667104;84;21855;-57
2022/12/14 17:57:56;;;;;;;12.33;8.87;;;;;;;-4.05;100.00;99962.19;1647988;84;21521;-59
